createdAt,value
2022-11-28T00:00:39.950Z,6.85
2022-11-28T00:04:43.461Z,7.68
2022-11-28T00:08:47.508Z,6.53
2022-11-28T00:12:52.642Z,6.38
2022-11-28T00:16:56.060Z,7.20
2022-11-28T00:21:02.656Z,7.47
2022-11-28T00:25:06.263Z,6.85
2022-11-28T00:29:12.174Z,6.55
2022-11-28T00:33:15.281Z,6.65
2022-11-28T00:37:18.791Z,7.70
2022-11-28T00:41:24.287Z,7.03
2022-11-28T00:45:29.422Z,8.20
2022-11-28T00:49:32.538Z,8.00
2022-11-28T00:53:36.383Z,7.82
2022-11-28T00:57:40.163Z,8.07
2022-11-28T01:01:45.118Z,7.55
2022-11-28T01:05:48.863Z,7.75
2022-11-28T01:09:52.396Z,7.55
2022-11-28T01:13:57.050Z,8.32
2022-11-28T01:18:02.756Z,9.13
2022-11-28T01:22:06.970Z,8.05
2022-11-28T01:26:11.802Z,7.65
2022-11-28T01:30:15.873Z,8.05
2022-11-28T01:34:20.288Z,8.27
2022-11-28T01:38:24.317Z,6.85
2022-11-28T01:42:27.482Z,8.18
2022-11-28T01:46:32.173Z,7.45
2022-11-28T01:50:40.229Z,8.98
2022-11-28T01:54:47.871Z,9.18
2022-11-28T01:58:56.663Z,9.80
2022-11-28T02:03:04.826Z,8.75
2022-11-28T02:07:10.239Z,12.43
2022-11-28T02:11:38.176Z,8.45
2022-11-28T02:16:01.111Z,9.38
2022-11-28T02:20:51.528Z,8.85
2022-11-28T02:25:15.890Z,9.60
2022-11-28T02:29:52.418Z,10.60
2022-11-28T02:34:01.578Z,9.23
2022-11-28T02:42:49.383Z,9.82
2022-11-28T02:46:58.341Z,8.70
2022-11-28T02:51:11.081Z,8.48
2022-11-28T02:59:46.502Z,7.68
2022-11-28T03:04:03.048Z,8.20
2022-11-28T03:08:24.167Z,8.70
2022-11-28T03:12:36.608Z,7.90
2022-11-28T03:16:49.822Z,8.82
2022-11-28T03:20:57.675Z,9.07
2022-11-28T03:25:12.405Z,10.38
2022-11-28T03:29:23.365Z,8.23
2022-11-28T03:33:29.814Z,8.63
2022-11-28T03:37:36.894Z,9.70
2022-11-28T03:41:46.957Z,9.13
2022-11-28T03:45:56.867Z,9.35
2022-11-28T03:50:06.698Z,8.40
2022-11-28T03:54:15.782Z,8.70
2022-11-28T03:58:27.001Z,9.20
2022-11-28T04:02:35.466Z,9.88
2022-11-28T04:06:52.529Z,7.60
2022-11-28T04:11:04.017Z,8.20
2022-11-28T04:15:15.531Z,7.20
2022-11-28T04:19:24.974Z,7.35
2022-11-28T04:23:29.347Z,7.45
2022-11-28T04:27:39.317Z,7.72
2022-11-28T04:31:46.681Z,8.40
2022-11-28T04:35:54.103Z,9.43
2022-11-28T04:39:58.624Z,7.15
2022-11-28T04:44:06.340Z,9.18
2022-11-28T04:48:11.721Z,7.28
2022-11-28T04:52:21.776Z,8.65
2022-11-28T04:56:31.614Z,9.30
2022-11-28T05:00:37.117Z,7.03
2022-11-28T05:04:44.381Z,7.25
2022-11-28T05:08:48.217Z,9.15
2022-11-28T05:12:51.670Z,9.32
2022-11-28T05:16:54.899Z,8.43
2022-11-28T05:21:02.083Z,7.00
2022-11-28T05:25:06.393Z,8.57
2022-11-28T05:29:10.142Z,8.95
2022-11-28T05:33:14.051Z,8.00
2022-11-28T05:37:18.453Z,7.80
2022-11-28T05:41:22.913Z,7.47
2022-11-28T05:45:26.459Z,7.28
2022-11-28T05:49:29.590Z,8.43
2022-11-28T05:53:36.522Z,8.05
2022-11-28T05:57:40.123Z,8.38
2022-11-28T06:01:43.255Z,13.25
2022-11-28T06:05:47.026Z,13.15
2022-11-28T06:09:52.054Z,20.92
2022-11-28T06:13:55.408Z,11.35
2022-11-28T06:17:58.975Z,9.35
2022-11-28T06:22:02.733Z,8.88
2022-11-28T06:26:08.969Z,10.23
2022-11-28T06:30:13.133Z,9.40
2022-11-28T06:34:16.576Z,10.27
2022-11-28T06:38:20.460Z,9.63
2022-11-28T06:42:25.147Z,8.82
2022-11-28T06:46:28.805Z,8.18
2022-11-28T06:50:34.333Z,9.15
2022-11-28T06:54:38.181Z,8.20
2022-11-28T06:58:43.082Z,8.40
2022-11-28T07:02:46.665Z,10.57
2022-11-28T07:06:50.237Z,8.85
2022-11-28T07:10:54.030Z,8.02
2022-11-28T07:14:59.355Z,7.85
2022-11-28T07:19:02.775Z,9.32
2022-11-28T07:23:07.189Z,7.75
2022-11-28T07:27:10.784Z,8.38
2022-11-28T07:31:19.027Z,8.20
2022-11-28T07:35:22.333Z,8.55
2022-11-28T07:39:25.939Z,8.38
2022-11-28T07:43:29.466Z,7.93
2022-11-28T07:47:35.627Z,7.88
2022-11-28T07:51:39.031Z,8.35
2022-11-28T07:55:42.652Z,8.65
2022-11-28T07:59:46.343Z,7.85
2022-11-28T08:03:51.535Z,8.07
2022-11-28T08:07:55.209Z,8.27
2022-11-28T08:12:00.422Z,8.32
2022-11-28T08:16:07.152Z,7.20
2022-11-28T08:20:17.057Z,9.50
2022-11-28T08:24:20.144Z,8.55
2022-11-28T08:28:23.662Z,7.50
2022-11-28T08:32:27.567Z,8.25
2022-11-28T08:36:32.198Z,9.02
2022-11-28T08:40:35.827Z,8.43
2022-11-28T08:44:38.885Z,9.48
2022-11-28T08:48:43.153Z,7.53
2022-11-28T08:52:48.140Z,7.75
2022-11-28T08:56:51.751Z,9.20
2022-11-28T09:00:54.929Z,8.20
2022-11-28T09:04:59.585Z,7.22
2022-11-28T09:09:05.501Z,7.45
2022-11-28T09:13:10.434Z,8.05
2022-11-28T09:17:16.028Z,7.18
2022-11-28T09:21:19.639Z,9.05
2022-11-28T09:25:24.722Z,8.93
2022-11-28T09:29:29.940Z,8.00
2022-11-28T09:33:33.287Z,8.13
2022-11-28T09:37:36.824Z,7.70
2022-11-28T09:41:59.757Z,7.82
2022-11-28T09:50:16.015Z,7.72
2022-11-28T09:54:22.593Z,8.48
2022-11-28T09:58:35.054Z,7.25
2022-11-28T10:02:50.394Z,9.48
2022-11-28T10:07:02.958Z,7.28
2022-11-28T10:11:21.744Z,8.43
2022-11-28T10:15:47.849Z,7.07
2022-11-28T10:19:56.056Z,7.70
2022-11-28T10:24:04.251Z,8.73
2022-11-28T10:28:11.444Z,7.88
2022-11-28T10:32:18.642Z,7.38
2022-11-28T10:36:26.607Z,7.88
2022-11-28T10:40:41.884Z,7.38
2022-11-28T10:45:16.347Z,7.47
2022-11-28T10:49:30.734Z,6.05
2022-11-28T10:53:46.761Z,8.43
2022-11-28T10:58:03.294Z,7.82
2022-11-28T11:02:32.719Z,7.40
2022-11-28T11:06:47.819Z,7.95
2022-11-28T11:11:04.570Z,8.52
2022-11-28T11:15:19.005Z,7.18
2022-11-28T11:19:27.940Z,7.25
2022-11-28T11:23:37.951Z,6.18
2022-11-28T11:27:50.060Z,6.72
2022-11-28T11:31:54.660Z,8.05
2022-11-28T11:35:58.566Z,6.55
2022-11-28T11:40:06.221Z,7.50
2022-11-28T11:44:35.789Z,6.93
2022-11-28T11:48:41.173Z,8.10
2022-11-28T11:52:45.086Z,6.28
2022-11-28T11:57:05.832Z,7.82
2022-11-28T12:01:19.683Z,6.65
2022-11-28T12:05:27.825Z,6.40
2022-11-28T12:09:38.209Z,7.43
2022-11-28T12:13:42.864Z,5.55
2022-11-28T12:17:59.047Z,6.35
2022-11-28T12:22:13.433Z,7.13
2022-11-28T12:26:23.053Z,6.57
2022-11-28T12:30:40.491Z,6.88
2022-11-28T12:34:55.009Z,7.03
2022-11-28T12:39:16.588Z,7.60
2022-11-28T12:43:36.391Z,7.22
2022-11-28T12:47:48.816Z,7.10
2022-11-28T12:56:13.349Z,7.13
2022-11-28T13:00:20.075Z,7.30
2022-11-28T13:04:50.942Z,7.95
2022-11-28T13:09:05.353Z,6.05
2022-11-28T13:13:14.090Z,7.60
2022-11-28T13:17:31.837Z,7.28
2022-11-28T13:21:45.389Z,7.50
2022-11-28T13:25:55.108Z,6.30
2022-11-28T13:30:07.501Z,7.90
2022-11-28T13:34:17.428Z,6.38
2022-11-28T13:38:37.276Z,7.18
2022-11-28T13:43:04.412Z,7.10
2022-11-28T13:47:29.049Z,7.18
2022-11-28T13:51:34.478Z,6.72
2022-11-28T13:55:48.410Z,7.03
2022-11-28T13:59:59.134Z,6.70
2022-11-28T14:04:10.582Z,6.75
2022-11-28T14:08:29.505Z,7.03
2022-11-28T14:12:45.623Z,6.18
2022-11-28T14:17:03.394Z,7.07
2022-11-28T14:21:13.770Z,7.70
2022-11-28T14:25:22.015Z,7.43
2022-11-28T14:29:37.318Z,7.00
2022-11-28T14:33:42.612Z,7.90
2022-11-28T14:37:54.226Z,7.10
2022-11-28T14:42:59.070Z,6.95
2022-11-28T14:47:15.654Z,8.25
2022-11-28T14:51:19.567Z,7.90
2022-11-28T14:55:23.778Z,6.65
2022-11-28T14:59:32.074Z,6.80
2022-11-28T15:03:47.227Z,7.10
2022-11-28T15:08:12.225Z,7.40
2022-11-28T15:12:23.106Z,8.25
2022-11-28T15:16:29.661Z,7.00
2022-11-28T15:20:39.466Z,5.95
2022-11-28T15:24:42.701Z,8.02
2022-11-28T15:28:46.124Z,6.88
2022-11-28T15:32:49.687Z,7.47
2022-11-28T15:36:56.356Z,7.25
2022-11-28T15:41:01.411Z,11.40
2022-11-28T15:45:10.124Z,21.42
2022-11-28T15:49:25.391Z,24.98
2022-11-28T15:53:31.241Z,11.23
2022-11-28T15:57:34.766Z,8.65
2022-11-28T16:01:38.588Z,8.38
2022-11-28T16:05:43.939Z,9.13
2022-11-28T16:10:00.445Z,7.13
2022-11-28T16:14:09.957Z,6.68
2022-11-28T16:18:16.723Z,6.18
2022-11-28T16:22:22.573Z,7.28
2022-11-28T16:26:48.328Z,8.25
2022-11-28T16:30:52.639Z,8.85
2022-11-28T16:35:00.804Z,10.32
2022-11-28T16:39:11.320Z,9.07
2022-11-28T16:43:26.220Z,9.70
2022-11-28T16:47:33.372Z,9.23
2022-11-28T16:51:39.724Z,11.27
2022-11-28T16:55:46.932Z,10.32
2022-11-28T16:59:53.101Z,9.80
2022-11-28T17:03:58.562Z,9.18
2022-11-28T17:08:02.840Z,9.00
2022-11-28T17:12:10.029Z,8.65
2022-11-28T17:16:20.341Z,9.80
2022-11-28T17:20:24.456Z,11.40
2022-11-28T17:24:31.553Z,9.68
2022-11-28T17:28:34.865Z,8.68
2022-11-28T17:32:40.048Z,7.45
2022-11-28T17:36:43.839Z,10.15
2022-11-28T17:40:47.431Z,8.90
2022-11-28T17:44:50.565Z,9.65
2022-11-28T17:48:57.925Z,9.27
2022-11-28T17:53:01.501Z,9.70
2022-11-28T17:57:05.164Z,9.32
2022-11-28T18:01:11.584Z,8.98
2022-11-28T18:05:16.879Z,10.18
2022-11-28T18:09:20.398Z,9.10
2022-11-28T18:13:24.586Z,8.52
2022-11-28T18:17:27.739Z,11.13
2022-11-28T18:21:32.859Z,12.38
2022-11-28T18:25:36.470Z,10.20
2022-11-28T18:29:40.160Z,10.65
2022-11-28T18:33:43.662Z,12.85
2022-11-28T18:37:49.074Z,14.30
2022-11-28T18:41:53.548Z,11.40
2022-11-28T18:45:59.736Z,11.30
2022-11-28T18:50:03.108Z,10.63
2022-11-28T18:54:08.207Z,10.20
2022-11-28T18:58:13.563Z,12.18
2022-11-28T19:02:17.273Z,10.48
2022-11-28T19:06:22.285Z,11.70
2022-11-28T19:10:27.060Z,10.35
2022-11-28T19:14:30.586Z,10.48
2022-11-28T19:18:33.967Z,9.43
2022-11-28T19:22:37.485Z,8.95
2022-11-28T19:26:41.950Z,9.95
2022-11-28T19:30:46.197Z,10.75
2022-11-28T19:34:52.889Z,10.48
2022-11-28T19:38:57.886Z,9.35
2022-11-28T19:43:04.749Z,9.00
2022-11-28T19:47:08.267Z,6.60
2022-11-28T19:51:13.974Z,9.65
2022-11-28T19:55:18.870Z,10.32
2022-11-28T19:59:25.387Z,11.43
2022-11-28T20:03:29.255Z,10.13
2022-11-28T20:07:32.608Z,10.90
2022-11-28T20:11:37.100Z,9.68
2022-11-28T20:15:42.280Z,9.70
2022-11-28T20:19:46.101Z,8.10
2022-11-28T20:23:52.186Z,9.48
2022-11-28T20:27:55.542Z,9.40
2022-11-28T20:32:00.552Z,10.23
2022-11-28T20:36:08.134Z,9.45
2022-11-28T20:40:13.086Z,11.48
2022-11-28T20:44:17.768Z,10.57
2022-11-28T20:48:22.834Z,10.43
2022-11-28T20:52:26.872Z,8.38
2022-11-28T20:56:41.789Z,9.80
2022-11-28T21:00:55.408Z,8.68
2022-11-28T21:05:01.017Z,9.20
2022-11-28T21:09:04.827Z,8.55
2022-11-28T21:13:08.300Z,7.97
2022-11-28T21:17:11.808Z,8.15
2022-11-28T21:21:34.094Z,8.57
2022-11-28T21:25:39.863Z,8.57
2022-11-28T21:29:44.132Z,6.82
2022-11-28T21:33:51.802Z,8.68
2022-11-28T21:37:57.305Z,9.25
2022-11-28T21:42:00.758Z,8.43
2022-11-28T21:46:05.489Z,6.80
2022-11-28T21:50:10.050Z,7.97
2022-11-28T21:54:16.090Z,9.20
2022-11-28T21:58:23.734Z,8.00
2022-11-28T22:06:54.611Z,10.13
2022-11-28T22:11:01.326Z,9.05
2022-11-28T22:15:04.886Z,10.15
2022-11-28T22:19:08.460Z,10.27
2022-11-28T22:23:12.185Z,7.28
2022-11-28T22:27:17.221Z,9.02
2022-11-28T22:31:20.901Z,9.02
2022-11-28T22:35:24.975Z,9.82
2022-11-28T22:39:28.541Z,10.13
2022-11-28T22:43:33.068Z,10.00
2022-11-28T22:47:36.660Z,9.90
2022-11-28T22:51:41.177Z,9.65
2022-11-28T22:55:44.700Z,10.20
2022-11-28T22:59:49.603Z,9.20
2022-11-28T23:03:53.451Z,9.50
2022-11-28T23:07:57.053Z,9.13
2022-11-28T23:12:01.920Z,8.95
2022-11-28T23:16:15.793Z,9.25
2022-11-28T23:20:20.800Z,8.45
2022-11-28T23:24:24.711Z,8.25
2022-11-28T23:28:30.066Z,8.95
2022-11-28T23:32:35.056Z,9.75
2022-11-28T23:36:42.416Z,10.45
2022-11-28T23:40:46.224Z,11.57
2022-11-28T23:44:49.983Z,10.70
2022-11-28T23:48:55.099Z,9.88
2022-11-28T23:52:58.168Z,9.55
2022-11-28T23:57:01.734Z,9.40
